ADDS METAR Data INFO
IDs: Format: Raw Decoded Include TAF

Data at: 1640 UTC 23 Nov 2017

KPEZ 231635Z AUTO 00000KT 10SM CLR 15/M05 A3024 RMK AO2 T01481055
KPEZ 231615Z AUTO 00000KT 10SM CLR 14/M05 A3025 RMK AO2 T01421046
KPEZ 231555Z AUTO 00000KT 10SM CLR 14/M04 A3025 RMK AO2 T01371045
KPEZ 231535Z AUTO 00000KT 10SM CLR 13/M04 A3026 RMK AO2 T01261044
KPEZ 231515Z AUTO 00000KT 10SM CLR 11/M03 A3026 RMK AO2 T01121030
KPEZ 231455Z AUTO 00000KT 10SM CLR 10/M02 A3025 RMK AO2 T00951025
KPEZ 231435Z AUTO 00000KT 10SM CLR 08/M01 A3025 RMK AO2 T00801009
KPEZ 231415Z AUTO 00000KT 10SM CLR 06/00 A3025 RMK AO2 T00630001
KPEZ 231355Z AUTO 00000KT 10SM CLR 04/00 A3024 RMK AO2 T00421005
KPEZ 231335Z AUTO 32003KT 10SM CLR 03/M02 A3024 RMK AO2 T00251019
KPEZ 231315Z AUTO 32003KT 10SM CLR 01/M02 A3024 RMK AO2 T00101020
KPEZ 231255Z AUTO 00000KT 10SM CLR 02/M02 A3024 RMK AO2 T00161021
KPEZ 231235Z AUTO 00000KT 10SM CLR 01/M02 A3024 RMK AO2 T00101021
KPEZ 231215Z AUTO 00000KT 10SM CLR 03/M02 A3023 RMK AO2 T00251020
KPEZ 231155Z AUTO 32003KT 10SM CLR 02/M02 A3023 RMK AO2 7//// T00201020 10051 20011
KPEZ 231135Z AUTO 00000KT 10SM CLR 02/M02 A3023 RMK AO2 T00191020
KPEZ 231115Z AUTO 33003KT 10SM CLR 02/M02 A3023 RMK AO2 T00221020
KPEZ 231055Z AUTO 00000KT 10SM CLR 03/M02 A3023 RMK AO2 T00301020
KPEZ 231035Z AUTO 00000KT 10SM CLR 03/M02 A3023 RMK AO2 T00311020
KPEZ 231015Z AUTO 32003KT 10SM CLR 03/M01 A3023 RMK AO2 T00301015
KPEZ 230955Z AUTO 33003KT 10SM CLR 02/M01 A3023 RMK AO2 T00241010
KPEZ 230935Z AUTO 32003KT 10SM CLR 02/M01 A3024 RMK AO2 T00181015
KPEZ 230915Z AUTO 33003KT 10SM CLR 03/M01 A3024 RMK AO2 T00251009
KPEZ 230855Z AUTO 00000KT 10SM CLR 02/M01 A3024 RMK AO2 T00151008
KPEZ 230835Z AUTO 00000KT 10SM CLR 02/M01 A3024 RMK AO2 T00181010
KPEZ 230815Z AUTO 00000KT 10SM CLR 01/M01 A3024 RMK AO2 T00111009
KPEZ 230755Z AUTO 00000KT 10SM CLR 03/M01 A3024 RMK AO2 T00321007
KPEZ 230735Z AUTO 35003KT 10SM CLR 03/00 A3025 RMK AO2 T00311001
KPEZ 230715Z AUTO 29003KT 10SM CLR 02/00 A3025 RMK AO2 T00221005
KPEZ 230655Z AUTO 00000KT 10SM CLR 02/00 A3025 RMK AO2 T00191001
KPEZ 230635Z AUTO 00000KT 10SM CLR 03/M01 A3026 RMK AO2 T00321006
KPEZ 230615Z AUTO 00000KT 10SM CLR 04/00 A3026 RMK AO2 T00361003
KPEZ 230555Z AUTO 00000KT 10SM CLR 05/00 A3026 RMK AO2 T00461003 10158 20035
KPEZ 230535Z AUTO 04003KT 10SM CLR 07/00 A3027 RMK AO2 T00651002
KPEZ 230515Z AUTO 00000KT 10SM CLR 04/00 A3028 RMK AO2 T00350002
KPEZ 230455Z AUTO 00000KT 10SM CLR 06/01 A3028 RMK AO2 T00570006
KPEZ 230435Z AUTO 00000KT 10SM CLR 05/01 A3029 RMK AO2 T00480005
KPEZ 230415Z AUTO 00000KT 10SM CLR 05/01 A3029 RMK AO2 T00470006
KPEZ 230355Z AUTO 00000KT 10SM CLR 06/01 A3029 RMK AO2 T00610005
KPEZ 230335Z AUTO 00000KT 10SM CLR 07/01 A3029 RMK AO2 T00700010
KPEZ 230315Z AUTO 00000KT 10SM CLR 08/01 A3029 RMK AO2 T00770007
KPEZ 230255Z AUTO 00000KT 10SM CLR 09/00 A3029 RMK AO2 T00930002
KPEZ 230235Z AUTO 00000KT 10SM CLR 11/01 A3028 RMK AO2 T01060005
KPEZ 230215Z AUTO 02003KT 10SM CLR 10/01 A3028 RMK AO2 T00950006
KPEZ 230155Z AUTO 00000KT 10SM CLR 12/00 A3028 RMK AO2 T01230002
KPEZ 230135Z AUTO 06003KT 10SM CLR 13/00 A3027 RMK AO2 T01320000
KPEZ 230115Z AUTO 05004KT 10SM CLR 14/00 A3027 RMK AO2 T01370000
KPEZ 230055Z AUTO 04003KT 10SM CLR 14/00 A3026 RMK AO2 T01411001
KPEZ 230035Z AUTO 04003KT 10SM CLR 15/00 A3026 RMK AO2 T01461002
KPEZ 230015Z AUTO 03003KT 10SM CLR 15/00 A3025 RMK AO2 T01510000
KPEZ 222355Z AUTO 03004KT 10SM CLR 16/00 A3025 RMK AO2 T01590000 10206 20159
KPEZ 222335Z AUTO 03003KT 10SM CLR 17/00 A3025 RMK AO2 T01700002
KPEZ 222315Z AUTO 02004KT 10SM CLR 18/00 A3025 RMK AO2 T01830003
KPEZ 222255Z AUTO 02004KT 10SM CLR 19/00 A3024 RMK AO2 T01930002
KPEZ 222235Z AUTO 01004KT 10SM CLR 20/01 A3024 RMK AO2 T01980005
KPEZ 222215Z AUTO 02005KT 10SM CLR 20/01 A3024 RMK AO2 T02010006
KPEZ 222155Z AUTO 34007KT 10SM CLR 20/01 A3024 RMK AO2 T02010008
KPEZ 222135Z AUTO 34006KT 10SM CLR 20/01 A3024 RMK AO2 T01980009
KPEZ 222115Z AUTO 00000KT 10SM CLR 20/01 A3024 RMK AO2 T02030011
KPEZ 222055Z AUTO 01008G14KT 10SM CLR 20/02 A3023 RMK AO2 T02030017
KPEZ 222035Z AUTO 35005KT 10SM CLR 21/02 A3024 RMK AO2 T02050022
KPEZ 222020Z AUTO 31005KT 10SM CLR 20/03 A3024 RMK AO2 T02020027
KPEZ 221955Z AUTO 32010G14KT 10SM CLR 20/04 A3025 RMK AO2 T02010036
KPEZ 221935Z AUTO 34004KT 10SM CLR 20/04 A3025 RMK AO2 T02010040
KPEZ 221915Z AUTO 35011G14KT 10SM CLR 20/04 A3026 RMK AO2 T01960041
KPEZ 221855Z AUTO 35009KT 10SM CLR 20/04 A3027 RMK AO2 T01950041
KPEZ 221835Z AUTO 05004KT 10SM CLR 19/04 A3028 RMK AO2 T01900043
KPEZ 221815Z AUTO 01007KT 10SM CLR 19/04 A3030 RMK AO2 T01880041
KPEZ 221755Z AUTO 01005KT 10SM CLR 19/04 A3031 RMK AO2 6//// T01850036
KPEZ 221735Z AUTO 35008KT 10SM CLR 18/03 A3033 RMK AO2 T01770033
KPEZ 221715Z AUTO 36010KT 10SM CLR 17/03 A3034 RMK AO2 T01700029
KPEZ 221655Z AUTO 01005G14KT 10SM CLR 16/02 A3034 RMK AO2 T01600022
KPEZ 221635Z AUTO 03008KT 10SM CLR 16/02 A3035 RMK AO2 T01610023
KPEZ 221615Z AUTO 36009G15KT 10SM CLR 16/02 A3035 RMK AO2 T01560021
KPEZ 221555Z AUTO 01015G20KT 10SM CLR 15/02 A3034 RMK AO2 T01480018
KPEZ 221535Z AUTO 01011G20KT 10SM CLR 15/02 A3034 RMK AO2 T01460020